Time;durP1;ratioP1;P1;durP2;ratioP2;P2;SDS_P1;SDS_P2;PMS_P1;PMS_P2;Temp;Humidity;BMP_temperature;BMP_pressure;BME280_temperature;BME280_humidity;BME280_pressure;Samples;Min_cycle;Max_cycle;Signal;HPM_P1;HPM_P2
2021/07/03 00:02:08;;;;;;;7.05;5.88;;;;;;;;;;5002506;28;20033;-83
2021/07/03 00:04:33;;;;;;;7.75;5.45;;;;;;;;;;4997578;28;20372;-83
2021/07/03 00:06:59;;;;;;;9.32;6.80;;;;;;;;;;4997153;28;20117;-84
2021/07/03 00:09:25;;;;;;;7.93;5.80;;;;;;;;;;4997700;28;20116;-85
2021/07/03 00:11:50;;;;;;;7.45;6.05;;;;;;;;;;4997347;28;20394;-84
2021/07/03 00:14:16;;;;;;;7.60;6.05;;;;;;;;;;4980586;28;20471;-84
2021/07/03 00:16:42;;;;;;;7.20;5.57;;;;;;;;;;4996713;28;20168;-84
2021/07/03 00:19:08;;;;;;;9.50;6.05;;;;;;;;;;4979740;28;20037;-83
2021/07/03 00:21:34;;;;;;;7.90;6.20;;;;;;;;;;4979391;28;20521;-83
2021/07/03 00:24:00;;;;;;;7.22;6.05;;;;;;;;;;4980495;28;20040;-84
2021/07/03 00:26:27;;;;;;;8.55;6.13;;;;;;;;;;4980402;28;20072;-85
2021/07/03 00:28:52;;;;;;;7.93;6.63;;;;;;;;;;4997321;28;20045;-84
2021/07/03 00:31:18;;;;;;;7.90;5.10;;;;;;;;;;4997193;28;20049;-83
2021/07/03 00:33:44;;;;;;;9.00;6.07;;;;;;;;;;4978777;28;20040;-83
2021/07/03 00:36:10;;;;;;;10.63;6.50;;;;;;;;;;4980562;28;20026;-83
2021/07/03 00:38:45;;;;;;;7.90;5.65;;;;;;;;;;5017247;28;20033;-86
2021/07/03 00:41:19;;;;;;;9.48;6.18;;;;;;;;;;5017191;28;20049;-85
2021/07/03 00:43:57;;;;;;;6.88;5.95;;;;;;;;;;5018601;28;20029;-85
2021/07/03 00:46:24;;;;;;;7.65;6.50;;;;;;;;;;5016167;28;20076;-84
2021/07/03 00:48:50;;;;;;;9.60;6.45;;;;;;;;;;4984097;28;20021;-84
2021/07/03 00:51:16;;;;;;;7.13;5.90;;;;;;;;;;5017018;28;20025;-84
2021/07/03 00:53:42;;;;;;;10.40;6.53;;;;;;;;;;5016752;28;20446;-86
2021/07/03 00:56:15;;;;;;;9.90;5.93;;;;;;;;;;5000232;28;20068;-85
2021/07/03 00:58:50;;;;;;;6.70;5.70;;;;;;;;;;4985179;28;20057;-88
2021/07/03 01:01:23;;;;;;;8.82;6.05;;;;;;;;;;5016105;28;20059;-86
2021/07/03 01:03:50;;;;;;;10.50;6.13;;;;;;;;;;5017441;28;20113;-84
2021/07/03 01:06:17;;;;;;;6.65;5.53;;;;;;;;;;4983637;28;20368;-84
2021/07/03 01:08:42;;;;;;;7.05;6.35;;;;;;;;;;5007147;28;20030;-84
2021/07/03 01:11:08;;;;;;;9.00;6.07;;;;;;;;;;5000557;28;20099;-85
2021/07/03 01:13:34;;;;;;;9.02;6.72;;;;;;;;;;4984194;28;20106;-85
2021/07/03 01:16:00;;;;;;;8.63;6.30;;;;;;;;;;5000576;28;20109;-85
2021/07/03 01:18:26;;;;;;;6.97;6.22;;;;;;;;;;4984293;28;20553;-85
2021/07/03 01:20:53;;;;;;;7.65;6.05;;;;;;;;;;5000288;28;20510;-83
2021/07/03 01:23:20;;;;;;;8.52;6.45;;;;;;;;;;4999940;28;20476;-85
2021/07/03 01:25:46;;;;;;;6.65;5.90;;;;;;;;;;5016913;28;20025;-83
2021/07/03 01:28:14;;;;;;;8.05;6.50;;;;;;;;;;5017485;28;20037;-84
2021/07/03 01:30:41;;;;;;;8.45;6.20;;;;;;;;;;4999852;28;20017;-85
2021/07/03 01:33:07;;;;;;;8.48;5.88;;;;;;;;;;5000142;28;20057;-83
2021/07/03 01:35:34;;;;;;;7.47;6.30;;;;;;;;;;5000196;28;20048;-83
2021/07/03 01:38:01;;;;;;;7.68;6.97;;;;;;;;;;5000273;28;20128;-83
2021/07/03 01:40:27;;;;;;;8.77;6.32;;;;;;;;;;4997004;28;20037;-83
2021/07/03 01:42:52;;;;;;;7.47;6.50;;;;;;;;;;4997333;28;20038;-83
2021/07/03 01:45:18;;;;;;;7.55;6.35;;;;;;;;;;4996838;28;20120;-83
2021/07/03 01:47:45;;;;;;;7.90;6.05;;;;;;;;;;5012669;28;20042;-83
2021/07/03 01:50:12;;;;;;;9.25;6.07;;;;;;;;;;5009835;28;20026;-83
2021/07/03 01:52:37;;;;;;;7.85;5.75;;;;;;;;;;4996411;28;20523;-82
2021/07/03 01:55:08;;;;;;;8.07;5.93;;;;;;;;;;4996579;28;20030;-82
2021/07/03 01:57:34;;;;;;;8.57;6.00;;;;;;;;;;4996832;28;20060;-82
2021/07/03 02:00:01;;;;;;;8.65;6.43;;;;;;;;;;4996493;28;20067;-82
2021/07/03 02:02:26;;;;;;;9.25;5.88;;;;;;;;;;5007484;28;20029;-82
2021/07/03 02:04:52;;;;;;;7.78;6.80;;;;;;;;;;5015871;28;20115;-82
2021/07/03 02:07:17;;;;;;;7.22;6.30;;;;;;;;;;4999595;28;20033;-82
2021/07/03 02:09:43;;;;;;;9.48;6.47;;;;;;;;;;5015978;28;20060;-83
2021/07/03 02:12:08;;;;;;;6.55;5.45;;;;;;;;;;5016075;28;20098;-83
2021/07/03 02:14:35;;;;;;;8.43;6.50;;;;;;;;;;4999205;28;20048;-85
2021/07/03 02:17:03;;;;;;;6.72;6.00;;;;;;;;;;5016104;28;20068;-85
2021/07/03 02:19:29;;;;;;;8.13;6.03;;;;;;;;;;4999708;28;20073;-85
2021/07/03 02:21:55;;;;;;;9.18;6.28;;;;;;;;;;4999662;28;20029;-84
2021/07/03 02:24:20;;;;;;;6.13;5.30;;;;;;;;;;4999118;28;20029;-84
2021/07/03 02:26:46;;;;;;;7.82;6.35;;;;;;;;;;5015674;28;20155;-84
2021/07/03 02:29:12;;;;;;;6.53;5.78;;;;;;;;;;4999607;28;20358;-84
2021/07/03 02:31:39;;;;;;;9.77;6.32;;;;;;;;;;4999210;28;20037;-85
2021/07/03 02:34:04;;;;;;;6.80;6.10;;;;;;;;;;4999331;28;20033;-84
2021/07/03 02:36:30;;;;;;;7.72;5.80;;;;;;;;;;4999183;28;20565;-84
2021/07/03 02:38:55;;;;;;;7.30;6.43;;;;;;;;;;4999608;28;20029;-85
2021/07/03 02:41:22;;;;;;;7.05;6.35;;;;;;;;;;4999213;28;20025;-85
2021/07/03 02:43:49;;;;;;;7.00;5.95;;;;;;;;;;5015589;28;20484;-85
2021/07/03 02:46:15;;;;;;;6.72;6.00;;;;;;;;;;4999409;28;20041;-84
2021/07/03 02:48:42;;;;;;;7.90;6.25;;;;;;;;;;4983236;28;20029;-85
2021/07/03 02:51:08;;;;;;;8.27;6.00;;;;;;;;;;4983153;28;20025;-84
2021/07/03 02:53:35;;;;;;;8.27;5.85;;;;;;;;;;5015400;28;20095;-84
2021/07/03 02:56:01;;;;;;;7.07;5.88;;;;;;;;;;5015314;28;20037;-85
2021/07/03 02:58:28;;;;;;;7.68;6.18;;;;;;;;;;4999164;28;20502;-85
2021/07/03 03:00:54;;;;;;;8.10;5.78;;;;;;;;;;4998042;28;20443;-84
2021/07/03 03:03:20;;;;;;;7.50;5.40;;;;;;;;;;4998680;28;20064;-84
2021/07/03 03:05:45;;;;;;;7.13;5.68;;;;;;;;;;5014748;28;20025;-85
2021/07/03 03:08:11;;;;;;;6.50;5.28;;;;;;;;;;4975894;28;20036;-85
2021/07/03 03:10:36;;;;;;;5.85;5.25;;;;;;;;;;5011785;28;20092;-85
2021/07/03 03:13:02;;;;;;;6.70;5.85;;;;;;;;;;4995701;28;20041;-84
2021/07/03 03:15:27;;;;;;;9.55;5.43;;;;;;;;;;5011254;28;20080;-85
2021/07/03 03:17:54;;;;;;;7.13;5.90;;;;;;;;;;4995409;28;20088;-84
2021/07/03 03:20:19;;;;;;;5.97;5.15;;;;;;;;;;5011501;28;20071;-84
2021/07/03 03:22:45;;;;;;;6.40;5.57;;;;;;;;;;5011490;28;20049;-85
2021/07/03 03:25:10;;;;;;;7.82;5.70;;;;;;;;;;5011307;28;20063;-84
2021/07/03 03:27:37;;;;;;;6.43;5.63;;;;;;;;;;5011529;28;20033;-85
2021/07/03 03:30:04;;;;;;;6.93;5.68;;;;;;;;;;5011022;28;20046;-84
2021/07/03 03:32:33;;;;;;;7.45;6.30;;;;;;;;;;4995185;28;20120;-84
2021/07/03 03:35:00;;;;;;;6.88;6.15;;;;;;;;;;4994955;28;20026;-85
2021/07/03 03:37:26;;;;;;;6.50;5.80;;;;;;;;;;5011299;28;20030;-84
2021/07/03 03:39:53;;;;;;;6.13;5.53;;;;;;;;;;5011466;28;20124;-85
2021/07/03 03:42:20;;;;;;;6.55;5.70;;;;;;;;;;4994945;28;20029;-84
2021/07/03 03:44:46;;;;;;;6.97;5.00;;;;;;;;;;5010727;28;20025;-84
2021/07/03 03:47:12;;;;;;;6.70;5.70;;;;;;;;;;5011210;28;20034;-84
2021/07/03 03:49:37;;;;;;;7.00;5.85;;;;;;;;;;5014751;28;20107;-84
2021/07/03 03:52:03;;;;;;;6.40;5.47;;;;;;;;;;4998372;28;20496;-84
2021/07/03 03:54:30;;;;;;;6.93;6.22;;;;;;;;;;4997676;28;20056;-84
2021/07/03 03:59:41;;;;;;;5.80;5.10;;;;;;;;;;5030309;28;20026;-84
2021/07/03 04:02:06;;;;;;;6.28;5.30;;;;;;;;;;4997889;28;20029;-83
2021/07/03 04:04:34;;;;;;;7.40;5.90;;;;;;;;;;4997743;28;20750;-84
2021/07/03 04:06:59;;;;;;;7.15;6.15;;;;;;;;;;4997655;28;20029;-83
2021/07/03 04:09:25;;;;;;;6.50;5.22;;;;;;;;;;4994629;28;20029;-84
2021/07/03 04:11:51;;;;;;;6.65;5.57;;;;;;;;;;4995549;28;20036;-84
2021/07/03 04:14:16;;;;;;;7.00;5.32;;;;;;;;;;4998418;28;20049;-84
2021/07/03 04:16:43;;;;;;;6.10;5.22;;;;;;;;;;4998529;28;20042;-84
2021/07/03 04:19:09;;;;;;;6.07;5.47;;;;;;;;;;5014972;28;20468;-84
2021/07/03 04:21:35;;;;;;;7.60;5.18;;;;;;;;;;4998577;28;20037;-84
2021/07/03 04:24:01;;;;;;;7.15;6.00;;;;;;;;;;4998159;28;20060;-84
2021/07/03 04:26:27;;;;;;;7.63;5.60;;;;;;;;;;4998230;28;20038;-84
2021/07/03 04:28:52;;;;;;;7.05;6.13;;;;;;;;;;4998502;28;20030;-84
2021/07/03 04:31:19;;;;;;;7.18;5.53;;;;;;;;;;4998086;28;20036;-83
2021/07/03 04:33:45;;;;;;;7.22;6.10;;;;;;;;;;4998452;28;20034;-84
2021/07/03 04:36:11;;;;;;;7.03;5.90;;;;;;;;;;4997998;28;20033;-83
2021/07/03 04:38:36;;;;;;;7.00;5.88;;;;;;;;;;4998266;28;20026;-83
2021/07/03 04:41:01;;;;;;;7.85;5.82;;;;;;;;;;4997877;28;20034;-84
2021/07/03 04:43:27;;;;;;;6.15;5.50;;;;;;;;;;4997813;28;20041;-84
2021/07/03 04:45:52;;;;;;;6.40;5.10;;;;;;;;;;5014238;28;20037;-82
2021/07/03 04:48:18;;;;;;;6.03;5.28;;;;;;;;;;4997564;28;20040;-82
2021/07/03 04:50:43;;;;;;;6.45;5.70;;;;;;;;;;5001129;28;20041;-82
2021/07/03 04:53:09;;;;;;;6.03;4.85;;;;;;;;;;5017336;28;20045;-83
2021/07/03 04:55:34;;;;;;;8.27;5.80;;;;;;;;;;5000768;28;20091;-82
2021/07/03 04:58:00;;;;;;;6.20;5.20;;;;;;;;;;5017225;28;20029;-82
2021/07/03 05:00:25;;;;;;;6.47;4.90;;;;;;;;;;5017107;28;20033;-83
2021/07/03 05:02:51;;;;;;;6.97;5.68;;;;;;;;;;5017074;28;20021;-82
2021/07/03 05:05:16;;;;;;;6.53;5.10;;;;;;;;;;5000598;28;20034;-83
2021/07/03 05:07:43;;;;;;;6.40;5.68;;;;;;;;;;5000852;28;20099;-84
2021/07/03 05:10:09;;;;;;;6.65;5.63;;;;;;;;;;5000527;28;20502;-83
2021/07/03 05:12:36;;;;;;;6.50;5.10;;;;;;;;;;4984270;28;20383;-83
2021/07/03 05:15:01;;;;;;;6.32;5.30;;;;;;;;;;4984434;28;20040;-83
2021/07/03 05:17:28;;;;;;;6.05;5.45;;;;;;;;;;5016911;28;20213;-84
2021/07/03 05:19:54;;;;;;;6.32;5.50;;;;;;;;;;4984876;28;20076;-83
2021/07/03 05:22:20;;;;;;;6.07;5.35;;;;;;;;;;4983617;28;20033;-83
2021/07/03 05:24:45;;;;;;;5.60;5.07;;;;;;;;;;4981975;28;20029;-83
2021/07/03 05:27:11;;;;;;;7.50;5.70;;;;;;;;;;5012574;28;20042;-84
2021/07/03 05:29:36;;;;;;;6.90;5.60;;;;;;;;;;5013577;28;20030;-82
2021/07/03 05:32:02;;;;;;;10.00;5.65;;;;;;;;;;4996648;28;20049;-84
2021/07/03 05:34:30;;;;;;;7.50;6.00;;;;;;;;;;5012882;28;20080;-83
2021/07/03 05:36:56;;;;;;;9.85;5.82;;;;;;;;;;5011798;28;20042;-83
2021/07/03 05:39:22;;;;;;;6.38;5.60;;;;;;;;;;4994272;28;20057;-83
2021/07/03 05:41:49;;;;;;;7.80;5.88;;;;;;;;;;5011469;28;20512;-83
2021/07/03 05:44:14;;;;;;;7.05;6.25;;;;;;;;;;5023459;28;20033;-83
2021/07/03 05:46:40;;;;;;;5.88;5.25;;;;;;;;;;4983766;28;20548;-82
2021/07/03 05:49:06;;;;;;;7.18;5.65;;;;;;;;;;5000064;28;20037;-83
2021/07/03 05:51:31;;;;;;;8.43;6.20;;;;;;;;;;4999965;28;20028;-83
2021/07/03 05:53:57;;;;;;;6.95;5.70;;;;;;;;;;4999193;28;20065;-83
2021/07/03 05:56:23;;;;;;;6.45;5.10;;;;;;;;;;5016095;28;20033;-83
2021/07/03 05:58:48;;;;;;;6.35;5.70;;;;;;;;;;4999673;28;20025;-83
2021/07/03 06:01:14;;;;;;;8.25;6.40;;;;;;;;;;4999537;28;20030;-82
2021/07/03 06:03:39;;;;;;;6.65;5.95;;;;;;;;;;4999894;28;20120;-86
2021/07/03 06:06:05;;;;;;;6.38;5.65;;;;;;;;;;4982967;28;20029;-78
2021/07/03 06:08:30;;;;;;;6.75;6.05;;;;;;;;;;4999380;28;20059;-78
2021/07/03 06:10:56;;;;;;;6.45;5.30;;;;;;;;;;4996483;28;20057;-79
2021/07/03 06:13:22;;;;;;;6.88;6.07;;;;;;;;;;5029047;28;20034;-79
2021/07/03 06:15:47;;;;;;;6.00;5.40;;;;;;;;;;5012612;28;20084;-79
2021/07/03 06:18:13;;;;;;;7.32;5.97;;;;;;;;;;5012490;28;20053;-79
2021/07/03 06:20:39;;;;;;;7.28;5.75;;;;;;;;;;5012474;28;20036;-79
2021/07/03 06:23:06;;;;;;;7.18;5.53;;;;;;;;;;5011988;28;20083;-80
2021/07/03 06:25:32;;;;;;;7.13;6.10;;;;;;;;;;4996014;28;20029;-80
2021/07/03 06:27:57;;;;;;;6.40;5.45;;;;;;;;;;5012503;28;20565;-80
2021/07/03 06:30:23;;;;;;;6.13;5.47;;;;;;;;;;4995593;28;20037;-79
2021/07/03 06:32:48;;;;;;;6.85;5.00;;;;;;;;;;5012669;28;20037;-79
2021/07/03 06:35:14;;;;;;;8.05;7.25;;;;;;;;;;5011253;28;20064;-79
2021/07/03 06:37:39;;;;;;;8.10;6.65;;;;;;;;;;5011914;28;20069;-79
2021/07/03 06:40:05;;;;;;;7.93;7.13;;;;;;;;;;5012041;28;20030;-80
2021/07/03 06:42:31;;;;;;;11.35;7.47;;;;;;;;;;4995955;28;20068;-80
2021/07/03 06:44:56;;;;;;;8.57;7.78;;;;;;;;;;5028572;28;20033;-79
2021/07/03 06:47:22;;;;;;;9.38;8.18;;;;;;;;;;5011812;28;20284;-80
2021/07/03 06:49:47;;;;;;;10.27;8.52;;;;;;;;;;4997115;28;20034;-80
2021/07/03 06:52:13;;;;;;;9.00;8.00;;;;;;;;;;5015147;28;20045;-80
2021/07/03 06:54:39;;;;;;;10.32;7.50;;;;;;;;;;5015137;28;20026;-79
2021/07/03 06:57:04;;;;;;;9.15;7.47;;;;;;;;;;4998935;28;20040;-80
2021/07/03 06:59:30;;;;;;;6.93;6.32;;;;;;;;;;4998599;28;20033;-80
2021/07/03 07:01:57;;;;;;;7.18;6.47;;;;;;;;;;5014851;28;20028;-79
2021/07/03 07:04:23;;;;;;;7.90;6.07;;;;;;;;;;4998456;28;20029;-79
2021/07/03 07:06:52;;;;;;;7.35;6.22;;;;;;;;;;4998811;28;20484;-80
2021/07/03 07:09:18;;;;;;;7.03;5.97;;;;;;;;;;4997243;28;20025;-80
2021/07/03 07:11:43;;;;;;;7.28;6.57;;;;;;;;;;4996680;28;20083;-80
2021/07/03 07:14:09;;;;;;;7.47;5.93;;;;;;;;;;4997550;28;20034;-80
2021/07/03 07:16:34;;;;;;;7.60;5.57;;;;;;;;;;4981733;28;20029;-80
2021/07/03 07:19:00;;;;;;;6.45;5.82;;;;;;;;;;4998401;28;20107;-80
2021/07/03 07:21:26;;;;;;;7.88;6.07;;;;;;;;;;4998209;28;20036;-79
2021/07/03 07:23:51;;;;;;;10.48;6.13;;;;;;;;;;4998090;28;20039;-80
2021/07/03 07:26:17;;;;;;;7.88;6.20;;;;;;;;;;4998082;28;20061;-80
2021/07/03 07:28:42;;;;;;;7.82;5.95;;;;;;;;;;5013789;28;20135;-80
2021/07/03 07:31:08;;;;;;;7.90;6.35;;;;;;;;;;4997751;28;20033;-79
2021/07/03 07:33:33;;;;;;;9.00;5.65;;;;;;;;;;4998444;28;20033;-79
2021/07/03 07:35:59;;;;;;;7.63;6.82;;;;;;;;;;4997632;28;20037;-80
2021/07/03 07:38:24;;;;;;;8.35;6.43;;;;;;;;;;4998007;28;20033;-79
2021/07/03 07:40:50;;;;;;;7.07;6.38;;;;;;;;;;4995731;28;20048;-79
2021/07/03 07:43:16;;;;;;;9.15;6.65;;;;;;;;;;4995279;28;20051;-79
2021/07/03 07:45:42;;;;;;;6.65;5.68;;;;;;;;;;4992018;28;20084;-79
2021/07/03 07:48:07;;;;;;;9.40;6.40;;;;;;;;;;4994609;28;20030;-79
2021/07/03 07:50:33;;;;;;;7.45;5.50;;;;;;;;;;5026996;28;20387;-80
2021/07/03 07:52:58;;;;;;;7.63;6.18;;;;;;;;;;4996137;28;20044;-79
2021/07/03 07:55:23;;;;;;;6.28;5.40;;;;;;;;;;5027793;28;20041;-80
2021/07/03 07:57:49;;;;;;;6.55;5.50;;;;;;;;;;5028084;28;20475;-79
2021/07/03 08:00:16;;;;;;;6.70;5.65;;;;;;;;;;5030292;28;20545;-79
2021/07/03 08:02:42;;;;;;;5.57;4.97;;;;;;;;;;5013937;28;20026;-78
2021/07/03 08:05:08;;;;;;;5.68;5.13;;;;;;;;;;4997254;28;20045;-78
2021/07/03 08:07:33;;;;;;;6.10;5.50;;;;;;;;;;4997410;28;20025;-79
2021/07/03 08:10:00;;;;;;;7.28;4.75;;;;;;;;;;5014405;28;20044;-78
2021/07/03 08:12:25;;;;;;;5.22;4.45;;;;;;;;;;5030233;28;20042;-78
2021/07/03 08:14:50;;;;;;;6.72;5.07;;;;;;;;;;4997762;28;20045;-78
2021/07/03 08:17:16;;;;;;;5.32;4.45;;;;;;;;;;4997516;28;20029;-78
2021/07/03 08:19:41;;;;;;;7.03;4.93;;;;;;;;;;5013646;28;20084;-78
2021/07/03 08:22:07;;;;;;;5.55;4.22;;;;;;;;;;5014136;28;20099;-78
2021/07/03 08:24:32;;;;;;;5.57;4.97;;;;;;;;;;5013199;28;20049;-78
2021/07/03 08:26:58;;;;;;;5.93;4.60;;;;;;;;;;4997246;28;20038;-78
2021/07/03 08:29:24;;;;;;;4.95;4.22;;;;;;;;;;5014036;28;20068;-78
2021/07/03 08:31:49;;;;;;;6.45;4.93;;;;;;;;;;5013729;28;20021;-79
2021/07/03 08:34:16;;;;;;;7.45;4.80;;;;;;;;;;5012964;28;20034;-78
2021/07/03 08:36:41;;;;;;;5.78;4.32;;;;;;;;;;4997512;28;20025;-78
2021/07/03 08:39:07;;;;;;;5.80;4.60;;;;;;;;;;5009619;28;20365;-79
2021/07/03 08:41:33;;;;;;;7.35;4.18;;;;;;;;;;4995864;28;20033;-81
2021/07/03 08:43:59;;;;;;;7.05;5.10;;;;;;;;;;4994920;28;20422;-82
2021/07/03 08:46:24;;;;;;;6.22;3.90;;;;;;;;;;5010080;28;20038;-82
2021/07/03 08:48:54;;;;;;;4.68;3.88;;;;;;;;;;4996059;28;20041;-82
2021/07/03 08:51:22;;;;;;;5.13;4.28;;;;;;;;;;4997223;28;20076;-82
2021/07/03 08:53:49;;;;;;;6.05;4.20;;;;;;;;;;5029482;28;20096;-82
2021/07/03 08:56:14;;;;;;;4.95;3.92;;;;;;;;;;5013336;28;20026;-82
2021/07/03 08:58:40;;;;;;;5.18;4.68;;;;;;;;;;4999668;28;20060;-82
2021/07/03 09:01:05;;;;;;;5.88;4.10;;;;;;;;;;5000289;28;20545;-82
2021/07/03 09:03:31;;;;;;;5.38;4.13;;;;;;;;;;5000217;28;20040;-82
2021/07/03 09:05:58;;;;;;;5.45;4.15;;;;;;;;;;5000031;28;20029;-82
2021/07/03 09:08:24;;;;;;;6.43;4.65;;;;;;;;;;5000397;28;20095;-82
2021/07/03 09:11:09;;;;;;;4.85;4.30;;;;;;;;;;5000434;28;20025;-82
2021/07/03 09:13:36;;;;;;;5.72;4.68;;;;;;;;;;5000593;28;20041;-82
2021/07/03 09:16:01;;;;;;;5.38;4.38;;;;;;;;;;4999516;28;20025;-82
2021/07/03 09:18:28;;;;;;;4.95;3.92;;;;;;;;;;4983355;28;20064;-82
2021/07/03 09:20:55;;;;;;;4.32;3.92;;;;;;;;;;5012489;28;20033;-81
2021/07/03 09:23:22;;;;;;;4.28;3.88;;;;;;;;;;5013491;28;20385;-82
2021/07/03 09:25:50;;;;;;;5.03;4.53;;;;;;;;;;4999950;28;20037;-81
2021/07/03 09:28:19;;;;;;;4.47;3.70;;;;;;;;;;5016830;28;20104;-82
2021/07/03 09:30:47;;;;;;;4.88;4.00;;;;;;;;;;4999778;28;20503;-82
2021/07/03 09:33:25;;;;;;;4.30;3.90;;;;;;;;;;4997469;28;20029;-82
2021/07/03 09:35:58;;;;;;;4.93;4.15;;;;;;;;;;5023023;28;20034;-82
2021/07/03 09:38:36;;;;;;;5.97;4.35;;;;;;;;;;5012757;28;20484;-82
2021/07/03 09:41:13;;;;;;;5.22;3.95;;;;;;;;;;5030661;28;20033;-81
2021/07/03 09:43:51;;;;;;;5.78;3.92;;;;;;;;;;4999716;28;20033;-81
2021/07/03 09:46:36;;;;;;;5.50;3.78;;;;;;;;;;5032120;28;20044;-83
2021/07/03 09:49:06;;;;;;;4.63;3.83;;;;;;;;;;4983760;28;20029;-83
2021/07/03 09:51:35;;;;;;;4.40;4.00;;;;;;;;;;4980833;28;20116;-82
2021/07/03 09:54:02;;;;;;;5.20;4.05;;;;;;;;;;4996809;28;20038;-82
2021/07/03 09:56:27;;;;;;;5.10;4.13;;;;;;;;;;4996361;28;20030;-83
2021/07/03 09:58:53;;;;;;;4.72;4.05;;;;;;;;;;4996317;28;20036;-84
2021/07/03 10:01:19;;;;;;;5.53;4.03;;;;;;;;;;4997637;28;20148;-83
2021/07/03 10:03:46;;;;;;;5.40;4.07;;;;;;;;;;4999589;28;20025;-84
2021/07/03 10:06:30;;;;;;;6.03;4.60;;;;;;;;;;4999502;28;20131;-83
2021/07/03 10:08:58;;;;;;;6.75;4.07;;;;;;;;;;5000178;28;20041;-83
2021/07/03 10:11:24;;;;;;;4.93;4.32;;;;;;;;;;4999645;28;20125;-84
2021/07/03 10:13:52;;;;;;;5.32;4.32;;;;;;;;;;4999358;28;20025;-83
2021/07/03 10:16:20;;;;;;;5.78;4.32;;;;;;;;;;4983222;28;20467;-84
2021/07/03 10:18:46;;;;;;;5.32;4.47;;;;;;;;;;4999684;28;20021;-83
2021/07/03 10:21:13;;;;;;;6.28;4.60;;;;;;;;;;4999839;28;20083;-83
2021/07/03 10:23:43;;;;;;;4.65;4.10;;;;;;;;;;4999185;28;20073;-83
2021/07/03 10:26:09;;;;;;;6.70;4.00;;;;;;;;;;4998975;28;20037;-83
2021/07/03 10:28:36;;;;;;;6.25;4.78;;;;;;;;;;4999114;28;20037;-83
2021/07/03 10:31:04;;;;;;;5.28;4.75;;;;;;;;;;4999230;28;20029;-84
2021/07/03 10:33:39;;;;;;;6.30;4.60;;;;;;;;;;5031673;28;20125;-83
2021/07/03 10:36:05;;;;;;;5.65;3.80;;;;;;;;;;4999079;28;20116;-83
2021/07/03 10:38:40;;;;;;;5.22;4.72;;;;;;;;;;4998611;28;20410;-81
2021/07/03 10:41:11;;;;;;;5.57;3.88;;;;;;;;;;5015607;28;20034;-81
2021/07/03 10:43:47;;;;;;;5.05;4.07;;;;;;;;;;5031606;28;20025;-81
2021/07/03 10:46:38;;;;;;;6.95;4.55;;;;;;;;;;4998850;28;20084;-81
2021/07/03 10:49:07;;;;;;;5.30;4.53;;;;;;;;;;5001223;28;20057;-81
2021/07/03 10:51:38;;;;;;;4.93;4.05;;;;;;;;;;5015325;28;20849;-81
2021/07/03 10:54:27;;;;;;;5.00;3.88;;;;;;;;;;4982230;28;20029;-81
2021/07/03 10:57:05;;;;;;;8.40;4.60;;;;;;;;;;4982822;28;20115;-82
2021/07/03 10:59:34;;;;;;;5.40;3.80;;;;;;;;;;5015058;28;20150;-82
2021/07/03 11:02:09;;;;;;;6.00;4.05;;;;;;;;;;4996985;28;20018;-82
2021/07/03 11:04:54;;;;;;;5.15;4.20;;;;;;;;;;4995156;28;20041;-81
2021/07/03 11:07:30;;;;;;;8.38;4.50;;;;;;;;;;4994745;28;20034;-82
2021/07/03 11:10:08;;;;;;;4.78;4.15;;;;;;;;;;4987058;28;20037;-81
2021/07/03 11:12:49;;;;;;;5.10;4.38;;;;;;;;;;5014439;28;20037;-81
2021/07/03 11:15:20;;;;;;;5.65;4.00;;;;;;;;;;4998451;28;20026;-81
2021/07/03 11:17:45;;;;;;;6.18;4.15;;;;;;;;;;4999119;28;20041;-81
2021/07/03 11:20:22;;;;;;;4.88;4.32;;;;;;;;;;4997797;28;20032;-81
2021/07/03 11:22:47;;;;;;;5.10;4.35;;;;;;;;;;4998218;28;20068;-82
2021/07/03 11:25:13;;;;;;;5.95;4.63;;;;;;;;;;4997408;28;20037;-81
2021/07/03 11:27:40;;;;;;;5.22;4.22;;;;;;;;;;4997831;28;20060;-81
2021/07/03 11:30:19;;;;;;;7.22;4.32;;;;;;;;;;4998061;28;20037;-82
2021/07/03 11:32:49;;;;;;;5.93;4.70;;;;;;;;;;4981863;28;20036;-81
2021/07/03 11:35:14;;;;;;;5.40;4.43;;;;;;;;;;4997816;28;20025;-81
2021/07/03 11:37:40;;;;;;;5.85;4.68;;;;;;;;;;4998157;28;20389;-82
2021/07/03 11:40:07;;;;;;;6.82;3.92;;;;;;;;;;4997850;28;20030;-82
2021/07/03 11:42:43;;;;;;;7.53;4.70;;;;;;;;;;4981410;28;20029;-82
2021/07/03 11:45:09;;;;;;;5.13;3.95;;;;;;;;;;4998404;28;20056;-82
2021/07/03 11:47:37;;;;;;;5.43;4.20;;;;;;;;;;4990046;28;20037;-82
2021/07/03 11:50:09;;;;;;;6.45;4.53;;;;;;;;;;5007099;28;20041;-82
2021/07/03 11:52:51;;;;;;;4.60;3.90;;;;;;;;;;5014313;28;20049;-81
2021/07/03 11:55:19;;;;;;;5.57;4.18;;;;;;;;;;4997871;28;20032;-82
2021/07/03 11:57:45;;;;;;;4.57;3.85;;;;;;;;;;4997668;28;20392;-83
2021/07/03 12:00:12;;;;;;;5.35;4.15;;;;;;;;;;4998179;28;20025;-82
2021/07/03 12:02:38;;;;;;;4.90;4.35;;;;;;;;;;4997565;28;20033;-82
2021/07/03 12:05:05;;;;;;;4.90;4.00;;;;;;;;;;4997634;28;20029;-82
2021/07/03 12:07:30;;;;;;;5.05;4.30;;;;;;;;;;4981344;28;20033;-82
2021/07/03 12:10:07;;;;;;;5.53;4.20;;;;;;;;;;4997435;28;20033;-83
2021/07/03 12:12:32;;;;;;;4.60;4.20;;;;;;;;;;4997741;28;20033;-82
2021/07/03 12:15:00;;;;;;;5.47;4.47;;;;;;;;;;4997367;28;20037;-82
2021/07/03 12:17:25;;;;;;;6.22;4.55;;;;;;;;;;4994777;28;20461;-82
2021/07/03 12:20:04;;;;;;;5.30;4.30;;;;;;;;;;5012855;28;20042;-83
2021/07/03 12:22:29;;;;;;;5.22;3.97;;;;;;;;;;5013207;28;20060;-84
2021/07/03 12:24:55;;;;;;;5.43;4.05;;;;;;;;;;4997058;28;20045;-82
2021/07/03 12:27:24;;;;;;;6.78;3.75;;;;;;;;;;4981330;28;20399;-83
2021/07/03 12:29:49;;;;;;;5.22;3.92;;;;;;;;;;4997892;28;20021;-83
2021/07/03 12:32:15;;;;;;;8.70;4.25;;;;;;;;;;5014079;28;20103;-82
2021/07/03 12:34:41;;;;;;;4.65;4.15;;;;;;;;;;4999223;28;20033;-83
2021/07/03 12:37:11;;;;;;;4.47;3.88;;;;;;;;;;4998021;28;20091;-82
2021/07/03 12:39:38;;;;;;;5.10;4.15;;;;;;;;;;4997574;28;20033;-81
2021/07/03 12:42:11;;;;;;;7.18;4.15;;;;;;;;;;5013868;28;20038;-81
2021/07/03 12:44:41;;;;;;;5.72;4.35;;;;;;;;;;5013513;28;20045;-81
2021/07/03 12:47:11;;;;;;;5.05;3.95;;;;;;;;;;5032146;28;20044;-81
2021/07/03 12:49:37;;;;;;;6.72;4.43;;;;;;;;;;5001111;28;20060;-81
2021/07/03 12:52:04;;;;;;;6.43;4.45;;;;;;;;;;4988275;28;20034;-81
2021/07/03 12:54:29;;;;;;;5.05;4.13;;;;;;;;;;5000192;28;20068;-80
2021/07/03 12:56:56;;;;;;;5.20;3.75;;;;;;;;;;5013083;28;20103;-80
2021/07/03 12:59:38;;;;;;;7.22;4.43;;;;;;;;;;4984338;28;20030;-80
2021/07/03 13:02:08;;;;;;;5.72;4.15;;;;;;;;;;4984959;28;20026;-80
2021/07/03 13:04:34;;;;;;;4.70;3.88;;;;;;;;;;5000996;28;20034;-80
2021/07/03 13:07:00;;;;;;;4.75;3.67;;;;;;;;;;5016647;28;20513;-80
2021/07/03 13:09:26;;;;;;;4.82;4.35;;;;;;;;;;5000238;28;20057;-80
2021/07/03 13:11:51;;;;;;;5.10;4.22;;;;;;;;;;4984477;28;20040;-80
2021/07/03 13:14:17;;;;;;;4.97;3.92;;;;;;;;;;5000352;28;20394;-81
2021/07/03 13:16:43;;;;;;;6.78;4.20;;;;;;;;;;5016828;28;20044;-80
2021/07/03 13:19:08;;;;;;;8.95;3.92;;;;;;;;;;5000040;28;20029;-80
2021/07/03 13:21:34;;;;;;;4.80;3.80;;;;;;;;;;5010514;28;20033;-80
2021/07/03 13:23:59;;;;;;;6.70;4.78;;;;;;;;;;5014961;28;20107;-80
2021/07/03 13:26:24;;;;;;;4.88;3.83;;;;;;;;;;5031023;28;20059;-80
2021/07/03 13:28:50;;;;;;;6.35;3.85;;;;;;;;;;5014339;28;20036;-80
2021/07/03 13:31:15;;;;;;;6.03;4.47;;;;;;;;;;4996518;28;20030;-81
2021/07/03 13:33:41;;;;;;;10.00;4.88;;;;;;;;;;4997565;28;20037;-81
2021/07/03 13:36:06;;;;;;;5.22;4.50;;;;;;;;;;4996564;28;20060;-81
2021/07/03 13:38:33;;;;;;;4.88;4.32;;;;;;;;;;4997424;28;20034;-81
2021/07/03 13:40:58;;;;;;;6.38;4.35;;;;;;;;;;5013246;28;20132;-81
2021/07/03 13:43:24;;;;;;;6.32;4.30;;;;;;;;;;4996586;28;20488;-81
2021/07/03 13:45:49;;;;;;;6.65;4.68;;;;;;;;;;5004454;28;20153;-80
2021/07/03 13:48:15;;;;;;;7.55;4.72;;;;;;;;;;4999320;28;20115;-80
2021/07/03 13:50:40;;;;;;;5.10;4.38;;;;;;;;;;5032437;28;20060;-80
2021/07/03 13:53:08;;;;;;;6.00;4.30;;;;;;;;;;5009009;28;20034;-80
2021/07/03 13:55:33;;;;;;;6.15;4.65;;;;;;;;;;5021570;28;20049;-80
2021/07/03 13:58:00;;;;;;;5.72;4.65;;;;;;;;;;5018616;28;20037;-80
2021/07/03 14:00:25;;;;;;;5.90;4.85;;;;;;;;;;5023459;28;20045;-80
2021/07/03 14:02:51;;;;;;;5.88;4.35;;;;;;;;;;5030863;28;20448;-80
2021/07/03 14:05:16;;;;;;;5.32;4.38;;;;;;;;;;5026488;28;20037;-81
2021/07/03 14:07:42;;;;;;;5.25;4.25;;;;;;;;;;5020228;28;20099;-80
2021/07/03 14:10:07;;;;;;;6.00;4.95;;;;;;;;;;5020492;28;20115;-80
2021/07/03 14:12:33;;;;;;;5.28;4.65;;;;;;;;;;5001724;28;20076;-80
2021/07/03 14:15:03;;;;;;;5.68;4.85;;;;;;;;;;5032413;28;20044;-80
2021/07/03 14:17:31;;;;;;;4.88;4.45;;;;;;;;;;5030855;28;20029;-80
2021/07/03 14:19:56;;;;;;;6.40;4.60;;;;;;;;;;4997436;28;20369;-80
2021/07/03 14:22:22;;;;;;;6.03;4.43;;;;;;;;;;4995588;28;20037;-80
2021/07/03 14:24:47;;;;;;;4.93;4.30;;;;;;;;;;5029551;28;20033;-81
2021/07/03 14:27:13;;;;;;;4.82;4.25;;;;;;;;;;5012451;28;20050;-80
2021/07/03 14:29:39;;;;;;;6.18;4.45;;;;;;;;;;4997221;28;20045;-80
2021/07/03 14:32:04;;;;;;;4.93;4.13;;;;;;;;;;4997556;28;20100;-80
2021/07/03 14:34:30;;;;;;;6.00;4.82;;;;;;;;;;5011566;28;20034;-80
2021/07/03 14:36:55;;;;;;;6.00;4.68;;;;;;;;;;5011849;28;20096;-81
2021/07/03 14:39:21;;;;;;;5.85;4.80;;;;;;;;;;4996284;28;20033;-81
2021/07/03 14:41:46;;;;;;;5.13;4.50;;;;;;;;;;4995709;28;20538;-81
2021/07/03 14:44:13;;;;;;;6.97;5.20;;;;;;;;;;4996311;28;20050;-82
2021/07/03 14:46:41;;;;;;;6.07;4.72;;;;;;;;;;5010397;28;20030;-81